sensor_id;sensor_type;location;lat;lon;timestamp;P1;durP1;ratioP1;P2;durP2;ratioP2
3299;SDS011;1662;49.310;8.134;2024-02-23T00:01:53;1.30;;;1.30;;
3299;SDS011;1662;49.310;8.134;2024-02-23T00:04:19;1.50;;;0.90;;
3299;SDS011;1662;49.310;8.134;2024-02-23T00:06:45;1.33;;;1.23;;
3299;SDS011;1662;49.310;8.134;2024-02-23T00:09:10;1.37;;;1.07;;
3299;SDS011;1662;49.310;8.134;2024-02-23T00:11:39;1.20;;;1.00;;
3299;SDS011;1662;49.310;8.134;2024-02-23T00:14:12;1.00;;;0.90;;
3299;SDS011;1662;49.310;8.134;2024-02-23T00:16:38;2.10;;;1.30;;
3299;SDS011;1662;49.310;8.134;2024-02-23T00:19:05;1.67;;;1.40;;
3299;SDS011;1662;49.310;8.134;2024-02-23T00:21:35;1.73;;;1.00;;
3299;SDS011;1662;49.310;8.134;2024-02-23T00:24:01;1.00;;;0.90;;
3299;SDS011;1662;49.310;8.134;2024-02-23T00:26:27;6.70;;;1.73;;
3299;SDS011;1662;49.310;8.134;2024-02-23T00:28:55;2.60;;;1.70;;
3299;SDS011;1662;49.310;8.134;2024-02-23T00:31:21;1.40;;;1.30;;
3299;SDS011;1662;49.310;8.134;2024-02-23T00:33:46;2.40;;;1.50;;
3299;SDS011;1662;49.310;8.134;2024-02-23T00:36:12;2.43;;;1.57;;
3299;SDS011;1662;49.310;8.134;2024-02-23T00:38:38;4.67;;;2.00;;
3299;SDS011;1662;49.310;8.134;2024-02-23T00:41:03;2.50;;;1.30;;
3299;SDS011;1662;49.310;8.134;2024-02-23T00:43:32;1.43;;;1.30;;
3299;SDS011;1662;49.310;8.134;2024-02-23T00:46:03;2.73;;;1.30;;
3299;SDS011;1662;49.310;8.134;2024-02-23T00:48:29;4.73;;;1.13;;
3299;SDS011;1662;49.310;8.134;2024-02-23T00:50:57;5.63;;;1.40;;
3299;SDS011;1662;49.310;8.134;2024-02-23T00:53:22;1.10;;;1.00;;
3299;SDS011;1662;49.310;8.134;2024-02-23T00:55:48;1.13;;;1.10;;
3299;SDS011;1662;49.310;8.134;2024-02-23T00:58:19;1.20;;;1.07;;
3299;SDS011;1662;49.310;8.134;2024-02-23T01:00:45;1.87;;;1.30;;
3299;SDS011;1662;49.310;8.134;2024-02-23T01:03:10;1.10;;;1.10;;
3299;SDS011;1662;49.310;8.134;2024-02-23T01:05:36;8.63;;;1.63;;
3299;SDS011;1662;49.310;8.134;2024-02-23T01:08:04;1.40;;;1.30;;
3299;SDS011;1662;49.310;8.134;2024-02-23T01:10:33;3.03;;;1.60;;
3299;SDS011;1662;49.310;8.134;2024-02-23T01:12:58;2.50;;;1.30;;
3299;SDS011;1662;49.310;8.134;2024-02-23T01:15:24;4.33;;;1.23;;
3299;SDS011;1662;49.310;8.134;2024-02-23T01:17:50;2.83;;;1.50;;
3299;SDS011;1662;49.310;8.134;2024-02-23T01:20:15;8.33;;;1.73;;
3299;SDS011;1662;49.310;8.134;2024-02-23T01:22:42;2.77;;;1.10;;
3299;SDS011;1662;49.310;8.134;2024-02-23T01:25:07;2.70;;;1.33;;
3299;SDS011;1662;49.310;8.134;2024-02-23T01:27:35;4.40;;;1.60;;
3299;SDS011;1662;49.310;8.134;2024-02-23T01:30:02;1.73;;;1.27;;
3299;SDS011;1662;49.310;8.134;2024-02-23T01:32:28;3.57;;;1.33;;
3299;SDS011;1662;49.310;8.134;2024-02-23T01:34:54;3.07;;;1.60;;
3299;SDS011;1662;49.310;8.134;2024-02-23T01:37:19;1.10;;;1.10;;
3299;SDS011;1662;49.310;8.134;2024-02-23T01:39:45;3.23;;;1.73;;
3299;SDS011;1662;49.310;8.134;2024-02-23T01:42:10;1.20;;;1.20;;
3299;SDS011;1662;49.310;8.134;2024-02-23T01:44:36;4.63;;;1.60;;
3299;SDS011;1662;49.310;8.134;2024-02-23T01:47:02;2.43;;;1.10;;
3299;SDS011;1662;49.310;8.134;2024-02-23T01:49:27;1.40;;;1.27;;
3299;SDS011;1662;49.310;8.134;2024-02-23T01:51:58;4.13;;;1.43;;
3299;SDS011;1662;49.310;8.134;2024-02-23T01:54:25;1.57;;;1.30;;
3299;SDS011;1662;49.310;8.134;2024-02-23T01:56:53;1.40;;;1.30;;
3299;SDS011;1662;49.310;8.134;2024-02-23T01:59:19;4.97;;;1.23;;
3299;SDS011;1662;49.310;8.134;2024-02-23T02:01:46;1.77;;;1.30;;
3299;SDS011;1662;49.310;8.134;2024-02-23T02:04:11;4.33;;;1.10;;
3299;SDS011;1662;49.310;8.134;2024-02-23T02:06:37;4.73;;;1.20;;
3299;SDS011;1662;49.310;8.134;2024-02-23T02:09:03;1.73;;;1.63;;
3299;SDS011;1662;49.310;8.134;2024-02-23T02:11:29;2.80;;;1.63;;
3299;SDS011;1662;49.310;8.134;2024-02-23T02:13:54;1.07;;;1.00;;
3299;SDS011;1662;49.310;8.134;2024-02-23T02:16:20;4.23;;;1.50;;
3299;SDS011;1662;49.310;8.134;2024-02-23T02:18:45;2.80;;;1.23;;
3299;SDS011;1662;49.310;8.134;2024-02-23T02:21:11;1.73;;;1.27;;
3299;SDS011;1662;49.310;8.134;2024-02-23T02:23:37;1.47;;;1.30;;
3299;SDS011;1662;49.310;8.134;2024-02-23T02:26:02;1.80;;;1.20;;
3299;SDS011;1662;49.310;8.134;2024-02-23T02:28:28;2.90;;;1.17;;
3299;SDS011;1662;49.310;8.134;2024-02-23T02:30:54;3.07;;;1.53;;
3299;SDS011;1662;49.310;8.134;2024-02-23T02:33:22;2.50;;;1.23;;
3299;SDS011;1662;49.310;8.134;2024-02-23T02:35:48;2.97;;;1.57;;
3299;SDS011;1662;49.310;8.134;2024-02-23T02:38:17;2.93;;;1.20;;
3299;SDS011;1662;49.310;8.134;2024-02-23T02:40:42;2.60;;;2.33;;
3299;SDS011;1662;49.310;8.134;2024-02-23T02:43:08;3.50;;;1.10;;
3299;SDS011;1662;49.310;8.134;2024-02-23T02:45:34;4.50;;;1.40;;
3299;SDS011;1662;49.310;8.134;2024-02-23T02:48:00;1.60;;;1.20;;
3299;SDS011;1662;49.310;8.134;2024-02-23T02:50:27;1.50;;;1.40;;
3299;SDS011;1662;49.310;8.134;2024-02-23T02:52:52;3.73;;;1.57;;
3299;SDS011;1662;49.310;8.134;2024-02-23T02:55:18;2.33;;;1.07;;
3299;SDS011;1662;49.310;8.134;2024-02-23T02:57:44;2.20;;;1.20;;
3299;SDS011;1662;49.310;8.134;2024-02-23T03:00:10;1.30;;;1.20;;
3299;SDS011;1662;49.310;8.134;2024-02-23T03:02:36;1.43;;;1.13;;
3299;SDS011;1662;49.310;8.134;2024-02-23T03:05:02;2.00;;;1.00;;
3299;SDS011;1662;49.310;8.134;2024-02-23T03:07:28;2.10;;;1.10;;
3299;SDS011;1662;49.310;8.134;2024-02-23T03:09:56;1.50;;;1.40;;
3299;SDS011;1662;49.310;8.134;2024-02-23T03:12:22;3.80;;;1.70;;
3299;SDS011;1662;49.310;8.134;2024-02-23T03:14:47;2.70;;;1.37;;
3299;SDS011;1662;49.310;8.134;2024-02-23T03:17:13;4.67;;;1.63;;
3299;SDS011;1662;49.310;8.134;2024-02-23T03:19:39;2.30;;;1.27;;
3299;SDS011;1662;49.310;8.134;2024-02-23T03:22:07;2.27;;;1.20;;
3299;SDS011;1662;49.310;8.134;2024-02-23T03:24:33;3.20;;;1.50;;
3299;SDS011;1662;49.310;8.134;2024-02-23T03:26:59;2.00;;;1.40;;
3299;SDS011;1662;49.310;8.134;2024-02-23T03:29:24;2.10;;;1.30;;
3299;SDS011;1662;49.310;8.134;2024-02-23T03:31:54;1.90;;;1.60;;
3299;SDS011;1662;49.310;8.134;2024-02-23T03:34:20;2.33;;;1.27;;
3299;SDS011;1662;49.310;8.134;2024-02-23T03:36:45;1.73;;;1.60;;
3299;SDS011;1662;49.310;8.134;2024-02-23T03:39:11;4.17;;;1.57;;
3299;SDS011;1662;49.310;8.134;2024-02-23T03:41:37;1.80;;;1.40;;
3299;SDS011;1662;49.310;8.134;2024-02-23T03:44:02;1.53;;;1.40;;
3299;SDS011;1662;49.310;8.134;2024-02-23T03:46:28;3.20;;;1.50;;
3299;SDS011;1662;49.310;8.134;2024-02-23T03:48:53;3.23;;;1.70;;
3299;SDS011;1662;49.310;8.134;2024-02-23T03:51:19;2.27;;;1.63;;
3299;SDS011;1662;49.310;8.134;2024-02-23T03:53:48;1.40;;;1.30;;
3299;SDS011;1662;49.310;8.134;2024-02-23T03:56:13;4.23;;;1.90;;
3299;SDS011;1662;49.310;8.134;2024-02-23T03:58:39;1.33;;;1.20;;
3299;SDS011;1662;49.310;8.134;2024-02-23T04:01:07;2.50;;;1.37;;
3299;SDS011;1662;49.310;8.134;2024-02-23T04:03:39;1.80;;;1.60;;
3299;SDS011;1662;49.310;8.134;2024-02-23T04:06:05;2.57;;;1.37;;
3299;SDS011;1662;49.310;8.134;2024-02-23T04:08:31;2.30;;;1.60;;
3299;SDS011;1662;49.310;8.134;2024-02-23T04:10:57;1.63;;;1.13;;
3299;SDS011;1662;49.310;8.134;2024-02-23T04:13:23;2.93;;;1.30;;
3299;SDS011;1662;49.310;8.134;2024-02-23T04:15:49;5.80;;;1.50;;
3299;SDS011;1662;49.310;8.134;2024-02-23T04:18:14;2.50;;;1.27;;
3299;SDS011;1662;49.310;8.134;2024-02-23T04:20:40;2.23;;;1.70;;
3299;SDS011;1662;49.310;8.134;2024-02-23T04:23:06;6.30;;;1.83;;
3299;SDS011;1662;49.310;8.134;2024-02-23T04:25:32;3.70;;;1.80;;
3299;SDS011;1662;49.310;8.134;2024-02-23T04:27:57;1.80;;;1.30;;
3299;SDS011;1662;49.310;8.134;2024-02-23T04:30:26;1.50;;;1.40;;
3299;SDS011;1662;49.310;8.134;2024-02-23T04:32:51;4.00;;;1.80;;
3299;SDS011;1662;49.310;8.134;2024-02-23T04:35:17;2.40;;;1.20;;
3299;SDS011;1662;49.310;8.134;2024-02-23T04:37:45;2.03;;;1.60;;
3299;SDS011;1662;49.310;8.134;2024-02-23T04:40:11;1.73;;;1.50;;
3299;SDS011;1662;49.310;8.134;2024-02-23T04:42:39;4.93;;;1.47;;
3299;SDS011;1662;49.310;8.134;2024-02-23T04:45:04;2.13;;;1.40;;
3299;SDS011;1662;49.310;8.134;2024-02-23T04:47:30;3.03;;;1.40;;
3299;SDS011;1662;49.310;8.134;2024-02-23T04:49:57;3.53;;;1.57;;
3299;SDS011;1662;49.310;8.134;2024-02-23T04:52:23;1.67;;;1.30;;
3299;SDS011;1662;49.310;8.134;2024-02-23T04:54:48;1.47;;;1.30;;
3299;SDS011;1662;49.310;8.134;2024-02-23T04:57:14;6.17;;;1.77;;
3299;SDS011;1662;49.310;8.134;2024-02-23T04:59:39;1.47;;;1.37;;
3299;SDS011;1662;49.310;8.134;2024-02-23T05:02:05;3.70;;;2.40;;
3299;SDS011;1662;49.310;8.134;2024-02-23T05:04:31;2.00;;;1.67;;
3299;SDS011;1662;49.310;8.134;2024-02-23T05:06:56;2.07;;;1.90;;
3299;SDS011;1662;49.310;8.134;2024-02-23T05:09:22;2.30;;;2.10;;
3299;SDS011;1662;49.310;8.134;2024-02-23T05:11:48;1.70;;;1.60;;
3299;SDS011;1662;49.310;8.134;2024-02-23T05:14:14;3.70;;;1.67;;
3299;SDS011;1662;49.310;8.134;2024-02-23T05:16:39;1.73;;;1.63;;
3299;SDS011;1662;49.310;8.134;2024-02-23T05:19:05;4.40;;;2.13;;
3299;SDS011;1662;49.310;8.134;2024-02-23T05:21:30;5.03;;;2.10;;
3299;SDS011;1662;49.310;8.134;2024-02-23T05:23:56;3.37;;;1.50;;
3299;SDS011;1662;49.310;8.134;2024-02-23T05:26:24;1.60;;;1.57;;
3299;SDS011;1662;49.310;8.134;2024-02-23T05:28:50;2.40;;;1.87;;
3299;SDS011;1662;49.310;8.134;2024-02-23T05:31:17;2.20;;;1.90;;
3299;SDS011;1662;49.310;8.134;2024-02-23T05:33:43;2.63;;;1.43;;
3299;SDS011;1662;49.310;8.134;2024-02-23T05:36:08;2.50;;;1.40;;
3299;SDS011;1662;49.310;8.134;2024-02-23T05:38:34;2.63;;;1.30;;
3299;SDS011;1662;49.310;8.134;2024-02-23T05:40:59;2.40;;;1.80;;
3299;SDS011;1662;49.310;8.134;2024-02-23T05:43:25;1.50;;;1.40;;
3299;SDS011;1662;49.310;8.134;2024-02-23T05:45:51;10.43;;;1.50;;
3299;SDS011;1662;49.310;8.134;2024-02-23T05:48:17;5.40;;;1.60;;
3299;SDS011;1662;49.310;8.134;2024-02-23T05:50:44;10.13;;;2.20;;
3299;SDS011;1662;49.310;8.134;2024-02-23T05:53:11;2.70;;;1.53;;
3299;SDS011;1662;49.310;8.134;2024-02-23T05:55:37;2.30;;;1.77;;
3299;SDS011;1662;49.310;8.134;2024-02-23T05:58:03;1.70;;;1.40;;
3299;SDS011;1662;49.310;8.134;2024-02-23T06:00:30;3.57;;;3.27;;
3299;SDS011;1662;49.310;8.134;2024-02-23T06:02:57;1.57;;;1.33;;
3299;SDS011;1662;49.310;8.134;2024-02-23T06:05:23;4.93;;;1.80;;
3299;SDS011;1662;49.310;8.134;2024-02-23T06:07:49;7.20;;;2.23;;
3299;SDS011;1662;49.310;8.134;2024-02-23T06:10:14;2.60;;;1.40;;
3299;SDS011;1662;49.310;8.134;2024-02-23T06:12:40;7.83;;;3.63;;
3299;SDS011;1662;49.310;8.134;2024-02-23T06:15:06;3.30;;;2.53;;
3299;SDS011;1662;49.310;8.134;2024-02-23T06:17:32;8.63;;;2.73;;
3299;SDS011;1662;49.310;8.134;2024-02-23T06:19:57;3.93;;;2.27;;
3299;SDS011;1662;49.310;8.134;2024-02-23T06:22:24;3.80;;;1.90;;
3299;SDS011;1662;49.310;8.134;2024-02-23T06:24:50;3.53;;;2.30;;
3299;SDS011;1662;49.310;8.134;2024-02-23T06:27:16;11.47;;;2.23;;
3299;SDS011;1662;49.310;8.134;2024-02-23T06:29:41;2.50;;;1.73;;
3299;SDS011;1662;49.310;8.134;2024-02-23T06:32:07;3.83;;;2.80;;
3299;SDS011;1662;49.310;8.134;2024-02-23T06:34:33;3.80;;;1.93;;
3299;SDS011;1662;49.310;8.134;2024-02-23T06:36:58;7.00;;;2.30;;
3299;SDS011;1662;49.310;8.134;2024-02-23T06:39:24;2.33;;;2.07;;
3299;SDS011;1662;49.310;8.134;2024-02-23T06:41:49;3.07;;;2.13;;
3299;SDS011;1662;49.310;8.134;2024-02-23T06:44:15;7.20;;;2.17;;
3299;SDS011;1662;49.310;8.134;2024-02-23T06:46:41;3.40;;;2.03;;
3299;SDS011;1662;49.310;8.134;2024-02-23T06:49:07;3.20;;;1.60;;
3299;SDS011;1662;49.310;8.134;2024-02-23T06:51:32;3.33;;;1.60;;
3299;SDS011;1662;49.310;8.134;2024-02-23T06:53:58;2.13;;;1.70;;
3299;SDS011;1662;49.310;8.134;2024-02-23T06:56:23;4.33;;;3.50;;
3299;SDS011;1662;49.310;8.134;2024-02-23T06:58:49;5.33;;;3.57;;
3299;SDS011;1662;49.310;8.134;2024-02-23T07:01:15;4.20;;;2.60;;
3299;SDS011;1662;49.310;8.134;2024-02-23T07:03:40;4.23;;;2.57;;
3299;SDS011;1662;49.310;8.134;2024-02-23T07:06:08;3.10;;;2.00;;
3299;SDS011;1662;49.310;8.134;2024-02-23T07:08:36;1.77;;;1.60;;
3299;SDS011;1662;49.310;8.134;2024-02-23T07:11:02;2.10;;;1.67;;
3299;SDS011;1662;49.310;8.134;2024-02-23T07:13:28;5.40;;;1.93;;
3299;SDS011;1662;49.310;8.134;2024-02-23T07:15:55;3.10;;;2.05;;
3299;SDS011;1662;49.310;8.134;2024-02-23T07:18:21;1.93;;;1.77;;
3299;SDS011;1662;49.310;8.134;2024-02-23T07:20:47;4.35;;;2.03;;
3299;SDS011;1662;49.310;8.134;2024-02-23T07:23:12;3.80;;;1.50;;
3299;SDS011;1662;49.310;8.134;2024-02-23T07:25:38;2.50;;;1.93;;
3299;SDS011;1662;49.310;8.134;2024-02-23T07:28:06;7.30;;;1.43;;
3299;SDS011;1662;49.310;8.134;2024-02-23T07:30:35;1.60;;;1.50;;
3299;SDS011;1662;49.310;8.134;2024-02-23T07:33:00;5.17;;;1.90;;
3299;SDS011;1662;49.310;8.134;2024-02-23T07:35:29;7.50;;;3.10;;
3299;SDS011;1662;49.310;8.134;2024-02-23T07:37:55;4.88;;;3.00;;
3299;SDS011;1662;49.310;8.134;2024-02-23T07:40:20;6.20;;;2.65;;
3299;SDS011;1662;49.310;8.134;2024-02-23T07:42:46;2.43;;;2.23;;
3299;SDS011;1662;49.310;8.134;2024-02-23T07:45:12;2.70;;;2.27;;
3299;SDS011;1662;49.310;8.134;2024-02-23T07:47:37;4.70;;;2.23;;
3299;SDS011;1662;49.310;8.134;2024-02-23T07:50:03;4.17;;;2.20;;
3299;SDS011;1662;49.310;8.134;2024-02-23T07:52:29;6.97;;;3.20;;
3299;SDS011;1662;49.310;8.134;2024-02-23T07:54:55;4.00;;;2.37;;
3299;SDS011;1662;49.310;8.134;2024-02-23T07:57:20;2.80;;;1.57;;
3299;SDS011;1662;49.310;8.134;2024-02-23T07:59:50;2.93;;;1.87;;
3299;SDS011;1662;49.310;8.134;2024-02-23T08:02:16;3.03;;;1.90;;
3299;SDS011;1662;49.310;8.134;2024-02-23T08:04:42;4.20;;;1.90;;
3299;SDS011;1662;49.310;8.134;2024-02-23T08:07:08;3.27;;;2.03;;
3299;SDS011;1662;49.310;8.134;2024-02-23T08:09:34;8.27;;;2.43;;
3299;SDS011;1662;49.310;8.134;2024-02-23T08:12:04;2.45;;;1.98;;
3299;SDS011;1662;49.310;8.134;2024-02-23T08:14:30;3.77;;;2.33;;
3299;SDS011;1662;49.310;8.134;2024-02-23T08:16:56;3.60;;;1.63;;
3299;SDS011;1662;49.310;8.134;2024-02-23T08:19:21;5.53;;;1.80;;
3299;SDS011;1662;49.310;8.134;2024-02-23T08:21:47;5.87;;;2.10;;
3299;SDS011;1662;49.310;8.134;2024-02-23T08:24:13;4.50;;;2.53;;
3299;SDS011;1662;49.310;8.134;2024-02-23T08:26:38;4.93;;;2.03;;
3299;SDS011;1662;49.310;8.134;2024-02-23T08:29:05;2.33;;;2.13;;
3299;SDS011;1662;49.310;8.134;2024-02-23T08:31:31;5.57;;;1.50;;
3299;SDS011;1662;49.310;8.134;2024-02-23T08:33:57;3.33;;;1.70;;
3299;SDS011;1662;49.310;8.134;2024-02-23T08:36:22;2.87;;;1.70;;
3299;SDS011;1662;49.310;8.134;2024-02-23T08:38:48;4.97;;;1.90;;
3299;SDS011;1662;49.310;8.134;2024-02-23T08:41:16;2.23;;;1.50;;
3299;SDS011;1662;49.310;8.134;2024-02-23T08:43:42;6.53;;;1.80;;
3299;SDS011;1662;49.310;8.134;2024-02-23T08:46:07;3.43;;;1.90;;
3299;SDS011;1662;49.310;8.134;2024-02-23T08:48:33;9.10;;;2.03;;
3299;SDS011;1662;49.310;8.134;2024-02-23T08:51:01;1.87;;;1.50;;
3299;SDS011;1662;49.310;8.134;2024-02-23T08:53:27;8.83;;;2.30;;
3299;SDS011;1662;49.310;8.134;2024-02-23T08:55:55;2.07;;;1.63;;
3299;SDS011;1662;49.310;8.134;2024-02-23T08:58:22;3.97;;;1.60;;
3299;SDS011;1662;49.310;8.134;2024-02-23T09:00:48;2.40;;;1.67;;
3299;SDS011;1662;49.310;8.134;2024-02-23T09:03:13;2.30;;;2.00;;
3299;SDS011;1662;49.310;8.134;2024-02-23T09:05:39;2.07;;;1.77;;
3299;SDS011;1662;49.310;8.134;2024-02-23T09:08:05;3.37;;;1.73;;
3299;SDS011;1662;49.310;8.134;2024-02-23T09:10:35;3.43;;;1.50;;
3299;SDS011;1662;49.310;8.134;2024-02-23T09:13:00;3.40;;;1.63;;
3299;SDS011;1662;49.310;8.134;2024-02-23T09:15:26;3.60;;;2.27;;
3299;SDS011;1662;49.310;8.134;2024-02-23T09:17:51;3.13;;;1.53;;
3299;SDS011;1662;49.310;8.134;2024-02-23T09:20:19;6.93;;;1.90;;
3299;SDS011;1662;49.310;8.134;2024-02-23T09:22:45;3.80;;;1.83;;
3299;SDS011;1662;49.310;8.134;2024-02-23T09:25:16;4.40;;;1.80;;
3299;SDS011;1662;49.310;8.134;2024-02-23T09:27:41;4.13;;;1.87;;
3299;SDS011;1662;49.310;8.134;2024-02-23T09:30:12;3.40;;;2.00;;
3299;SDS011;1662;49.310;8.134;2024-02-23T09:32:38;6.30;;;1.97;;
3299;SDS011;1662;49.310;8.134;2024-02-23T09:35:04;4.43;;;2.20;;
3299;SDS011;1662;49.310;8.134;2024-02-23T09:37:31;6.53;;;2.70;;
3299;SDS011;1662;49.310;8.134;2024-02-23T09:39:57;3.77;;;2.43;;
3299;SDS011;1662;49.310;8.134;2024-02-23T09:42:23;3.27;;;2.43;;
3299;SDS011;1662;49.310;8.134;2024-02-23T09:44:57;2.60;;;1.90;;
3299;SDS011;1662;49.310;8.134;2024-02-23T09:47:27;3.87;;;2.30;;
3299;SDS011;1662;49.310;8.134;2024-02-23T09:49:53;5.67;;;2.63;;
3299;SDS011;1662;49.310;8.134;2024-02-23T09:52:20;4.60;;;2.13;;
3299;SDS011;1662;49.310;8.134;2024-02-23T09:54:47;7.60;;;2.53;;
3299;SDS011;1662;49.310;8.134;2024-02-23T09:57:13;6.23;;;1.83;;
3299;SDS011;1662;49.310;8.134;2024-02-23T09:59:40;6.20;;;2.00;;
3299;SDS011;1662;49.310;8.134;2024-02-23T10:02:13;2.40;;;1.50;;
3299;SDS011;1662;49.310;8.134;2024-02-23T10:04:40;2.67;;;1.40;;
3299;SDS011;1662;49.310;8.134;2024-02-23T10:07:10;5.03;;;2.10;;
3299;SDS011;1662;49.310;8.134;2024-02-23T10:09:39;7.33;;;2.03;;
3299;SDS011;1662;49.310;8.134;2024-02-23T10:12:05;5.60;;;1.60;;
3299;SDS011;1662;49.310;8.134;2024-02-23T10:14:31;6.13;;;1.80;;
3299;SDS011;1662;49.310;8.134;2024-02-23T10:16:57;3.20;;;1.67;;
3299;SDS011;1662;49.310;8.134;2024-02-23T10:19:23;2.93;;;1.60;;
3299;SDS011;1662;49.310;8.134;2024-02-23T10:21:53;6.03;;;1.83;;
3299;SDS011;1662;49.310;8.134;2024-02-23T10:24:20;5.80;;;1.77;;
3299;SDS011;1662;49.310;8.134;2024-02-23T10:26:46;2.60;;;1.60;;
3299;SDS011;1662;49.310;8.134;2024-02-23T10:29:12;3.33;;;1.63;;
3299;SDS011;1662;49.310;8.134;2024-02-23T10:31:37;3.00;;;1.90;;
3299;SDS011;1662;49.310;8.134;2024-02-23T10:34:09;4.50;;;1.73;;
3299;SDS011;1662;49.310;8.134;2024-02-23T10:36:40;5.43;;;1.80;;
3299;SDS011;1662;49.310;8.134;2024-02-23T10:39:07;3.10;;;2.00;;
3299;SDS011;1662;49.310;8.134;2024-02-23T10:41:37;4.90;;;2.30;;
3299;SDS011;1662;49.310;8.134;2024-02-23T10:44:09;8.50;;;2.63;;
3299;SDS011;1662;49.310;8.134;2024-02-23T10:46:39;1.73;;;1.40;;
3299;SDS011;1662;49.310;8.134;2024-02-23T10:49:06;4.50;;;1.93;;
3299;SDS011;1662;49.310;8.134;2024-02-23T10:51:32;3.13;;;1.70;;
3299;SDS011;1662;49.310;8.134;2024-02-23T10:53:59;5.30;;;2.13;;
3299;SDS011;1662;49.310;8.134;2024-02-23T10:56:25;4.30;;;2.00;;
3299;SDS011;1662;49.310;8.134;2024-02-23T10:58:52;2.30;;;1.83;;
3299;SDS011;1662;49.310;8.134;2024-02-23T11:01:17;3.10;;;2.00;;
3299;SDS011;1662;49.310;8.134;2024-02-23T11:03:45;5.10;;;2.20;;
3299;SDS011;1662;49.310;8.134;2024-02-23T11:06:15;4.00;;;2.40;;
3299;SDS011;1662;49.310;8.134;2024-02-23T11:08:45;5.53;;;3.40;;
3299;SDS011;1662;49.310;8.134;2024-02-23T11:11:16;2.63;;;2.00;;
3299;SDS011;1662;49.310;8.134;2024-02-23T11:13:47;4.17;;;1.60;;
3299;SDS011;1662;49.310;8.134;2024-02-23T11:16:21;5.90;;;1.83;;
3299;SDS011;1662;49.310;8.134;2024-02-23T11:18:51;2.90;;;1.97;;
3299;SDS011;1662;49.310;8.134;2024-02-23T11:21:34;4.87;;;2.00;;
3299;SDS011;1662;49.310;8.134;2024-02-23T11:24:02;1.80;;;1.47;;
3299;SDS011;1662;49.310;8.134;2024-02-23T11:26:28;5.93;;;1.90;;
3299;SDS011;1662;49.310;8.134;2024-02-23T11:28:54;3.77;;;1.73;;
3299;SDS011;1662;49.310;8.134;2024-02-23T11:31:23;2.90;;;2.60;;
3299;SDS011;1662;49.310;8.134;2024-02-23T11:33:54;5.30;;;1.83;;
3299;SDS011;1662;49.310;8.134;2024-02-23T11:36:24;6.37;;;1.93;;
3299;SDS011;1662;49.310;8.134;2024-02-23T11:38:54;5.30;;;1.60;;
3299;SDS011;1662;49.310;8.134;2024-02-23T11:41:24;3.87;;;2.40;;
3299;SDS011;1662;49.310;8.134;2024-02-23T11:43:51;6.00;;;3.00;;
3299;SDS011;1662;49.310;8.134;2024-02-23T11:46:17;5.27;;;2.37;;
3299;SDS011;1662;49.310;8.134;2024-02-23T11:48:47;7.17;;;2.57;;
3299;SDS011;1662;49.310;8.134;2024-02-23T11:51:18;3.07;;;1.50;;
3299;SDS011;1662;49.310;8.134;2024-02-23T11:53:48;1.60;;;1.50;;
3299;SDS011;1662;49.310;8.134;2024-02-23T11:56:14;8.37;;;1.87;;
3299;SDS011;1662;49.310;8.134;2024-02-23T11:58:40;1.50;;;1.40;;
3299;SDS011;1662;49.310;8.134;2024-02-23T12:01:06;2.13;;;1.87;;
3299;SDS011;1662;49.310;8.134;2024-02-23T12:03:32;3.13;;;1.80;;
3299;SDS011;1662;49.310;8.134;2024-02-23T12:06:01;2.40;;;1.83;;
3299;SDS011;1662;49.310;8.134;2024-02-23T12:08:30;7.60;;;1.80;;
3299;SDS011;1662;49.310;8.134;2024-02-23T12:11:03;7.23;;;1.80;;
3299;SDS011;1662;49.310;8.134;2024-02-23T12:13:29;4.77;;;1.97;;
3299;SDS011;1662;49.310;8.134;2024-02-23T12:15:56;2.43;;;2.00;;
3299;SDS011;1662;49.310;8.134;2024-02-23T12:18:24;2.77;;;1.90;;
3299;SDS011;1662;49.310;8.134;2024-02-23T12:20:58;2.40;;;1.27;;
3299;SDS011;1662;49.310;8.134;2024-02-23T12:23:25;11.80;;;1.97;;
3299;SDS011;1662;49.310;8.134;2024-02-23T12:25:54;3.23;;;1.60;;
3299;SDS011;1662;49.310;8.134;2024-02-23T12:28:22;5.27;;;2.10;;
3299;SDS011;1662;49.310;8.134;2024-02-23T12:31:01;8.67;;;2.20;;
3299;SDS011;1662;49.310;8.134;2024-02-23T12:33:28;2.50;;;1.70;;
3299;SDS011;1662;49.310;8.134;2024-02-23T12:36:01;7.33;;;1.87;;
3299;SDS011;1662;49.310;8.134;2024-02-23T12:38:28;3.90;;;2.10;;
3299;SDS011;1662;49.310;8.134;2024-02-23T12:40:54;3.00;;;1.90;;
3299;SDS011;1662;49.310;8.134;2024-02-23T12:43:22;6.50;;;2.30;;
3299;SDS011;1662;49.310;8.134;2024-02-23T12:45:52;3.07;;;2.80;;
3299;SDS011;1662;49.310;8.134;2024-02-23T12:48:19;3.33;;;1.97;;
3299;SDS011;1662;49.310;8.134;2024-02-23T12:50:46;6.00;;;2.30;;
3299;SDS011;1662;49.310;8.134;2024-02-23T12:56:09;3.00;;;1.57;;
3299;SDS011;1662;49.310;8.134;2024-02-23T12:58:41;2.40;;;2.20;;
3299;SDS011;1662;49.310;8.134;2024-02-23T13:01:08;1.87;;;1.77;;
3299;SDS011;1662;49.310;8.134;2024-02-23T13:03:39;2.43;;;1.57;;
3299;SDS011;1662;49.310;8.134;2024-02-23T13:06:10;2.90;;;1.93;;
3299;SDS011;1662;49.310;8.134;2024-02-23T13:08:38;3.53;;;2.10;;
3299;SDS011;1662;49.310;8.134;2024-02-23T13:11:08;3.77;;;2.10;;
3299;SDS011;1662;49.310;8.134;2024-02-23T13:13:34;2.77;;;1.30;;
3299;SDS011;1662;49.310;8.134;2024-02-23T13:15:59;2.40;;;1.43;;
3299;SDS011;1662;49.310;8.134;2024-02-23T13:18:25;1.90;;;1.80;;
3299;SDS011;1662;49.310;8.134;2024-02-23T13:20:51;1.93;;;1.70;;
3299;SDS011;1662;49.310;8.134;2024-02-23T13:23:17;1.50;;;1.30;;
3299;SDS011;1662;49.310;8.134;2024-02-23T13:25:43;1.97;;;1.67;;
3299;SDS011;1662;49.310;8.134;2024-02-23T13:28:09;1.43;;;1.43;;
3299;SDS011;1662;49.310;8.134;2024-02-23T13:30:35;3.07;;;1.90;;
3299;SDS011;1662;49.310;8.134;2024-02-23T13:33:02;5.13;;;1.57;;
3299;SDS011;1662;49.310;8.134;2024-02-23T13:35:33;2.30;;;1.90;;
3299;SDS011;1662;49.310;8.134;2024-02-23T13:37:59;1.70;;;1.60;;
3299;SDS011;1662;49.310;8.134;2024-02-23T13:40:25;4.10;;;2.30;;
3299;SDS011;1662;49.310;8.134;2024-02-23T13:42:50;2.93;;;2.10;;
3299;SDS011;1662;49.310;8.134;2024-02-23T13:45:18;3.13;;;2.13;;
3299;SDS011;1662;49.310;8.134;2024-02-23T13:47:54;2.43;;;1.90;;
3299;SDS011;1662;49.310;8.134;2024-02-23T13:50:24;2.93;;;1.70;;
3299;SDS011;1662;49.310;8.134;2024-02-23T13:52:50;2.10;;;1.90;;
3299;SDS011;1662;49.310;8.134;2024-02-23T13:55:17;2.43;;;1.80;;
3299;SDS011;1662;49.310;8.134;2024-02-23T13:57:42;4.40;;;2.27;;
3299;SDS011;1662;49.310;8.134;2024-02-23T14:00:08;4.50;;;2.13;;
3299;SDS011;1662;49.310;8.134;2024-02-23T14:02:37;2.03;;;1.93;;
3299;SDS011;1662;49.310;8.134;2024-02-23T14:05:05;3.43;;;3.13;;
3299;SDS011;1662;49.310;8.134;2024-02-23T14:07:32;3.47;;;2.03;;
3299;SDS011;1662;49.310;8.134;2024-02-23T14:09:58;2.20;;;2.10;;
3299;SDS011;1662;49.310;8.134;2024-02-23T14:12:24;2.03;;;1.90;;
3299;SDS011;1662;49.310;8.134;2024-02-23T14:14:49;2.03;;;1.93;;
3299;SDS011;1662;49.310;8.134;2024-02-23T14:17:15;2.70;;;2.37;;
3299;SDS011;1662;49.310;8.134;2024-02-23T14:19:41;2.63;;;2.17;;
3299;SDS011;1662;49.310;8.134;2024-02-23T14:22:06;4.10;;;2.10;;
3299;SDS011;1662;49.310;8.134;2024-02-23T14:27:08;2.10;;;2.10;;
3299;SDS011;1662;49.310;8.134;2024-02-23T14:29:34;2.50;;;2.40;;
3299;SDS011;1662;49.310;8.134;2024-02-23T14:32:00;2.20;;;2.10;;
3299;SDS011;1662;49.310;8.134;2024-02-23T14:34:26;2.30;;;2.20;;
3299;SDS011;1662;49.310;8.134;2024-02-23T14:36:52;2.30;;;2.10;;
3299;SDS011;1662;49.310;8.134;2024-02-23T14:39:17;2.40;;;2.07;;
3299;SDS011;1662;49.310;8.134;2024-02-23T14:41:43;3.00;;;2.47;;
3299;SDS011;1662;49.310;8.134;2024-02-23T14:44:09;2.60;;;2.40;;
3299;SDS011;1662;49.310;8.134;2024-02-23T14:46:35;3.20;;;3.00;;
3299;SDS011;1662;49.310;8.134;2024-02-23T14:49:00;4.00;;;3.53;;
3299;SDS011;1662;49.310;8.134;2024-02-23T14:51:35;3.03;;;2.83;;
3299;SDS011;1662;49.310;8.134;2024-02-23T14:54:07;2.80;;;2.53;;
3299;SDS011;1662;49.310;8.134;2024-02-23T14:56:35;3.00;;;2.90;;
3299;SDS011;1662;49.310;8.134;2024-02-23T14:59:01;3.40;;;3.10;;
3299;SDS011;1662;49.310;8.134;2024-02-23T15:01:27;3.80;;;3.23;;
3299;SDS011;1662;49.310;8.134;2024-02-23T15:03:52;3.43;;;3.20;;
3299;SDS011;1662;49.310;8.134;2024-02-23T15:06:18;3.70;;;3.10;;
3299;SDS011;1662;49.310;8.134;2024-02-23T15:08:46;2.77;;;2.67;;
3299;SDS011;1662;49.310;8.134;2024-02-23T15:11:11;3.00;;;2.73;;
3299;SDS011;1662;49.310;8.134;2024-02-23T15:13:37;4.73;;;3.60;;
3299;SDS011;1662;49.310;8.134;2024-02-23T15:16:03;2.50;;;2.50;;
3299;SDS011;1662;49.310;8.134;2024-02-23T15:18:28;3.77;;;3.57;;